Time;durP1;ratioP1;P1;durP2;ratioP2;P2;SDS_P1;SDS_P2;PMS_P1;PMS_P2;Temp;Humidity;BMP_temperature;BMP_pressure;BME280_temperature;BME280_humidity;BME280_pressure;Samples;Min_cycle;Max_cycle;Signal;HPM_P1;HPM_P2
2021/12/11 00:01:06;;;;;;;;;;;153.60;2252.80;;;;;;4755086;30;20064;-57
2021/12/11 00:03:38;;;;;;;67.30;38.33;;;153.60;2252.80;;;;;;4754960;30;19967;-57
2021/12/11 00:06:16;;;;;;;68.47;40.72;;;128.90;2252.80;;;;;;4755201;30;20111;-57
2021/12/11 00:08:45;;;;;;;67.55;40.67;;;153.60;2252.80;;;;;;4754811;30;20067;-56
2021/12/11 00:11:19;;;;;;;65.00;38.40;;;128.90;2252.80;;;;;;4755076;30;20381;-56
2021/12/11 00:13:46;;;;;;;65.47;39.65;;;153.60;2252.80;;;;;;4754888;30;20512;-56
2021/12/11 00:16:17;;;;;;;61.85;39.55;;;153.60;2252.80;;;;;;4755057;30;20036;-56
2021/12/11 00:18:43;;;;;;;63.88;39.08;;;153.60;2252.80;;;;;;4754688;30;20025;-56
2021/12/11 00:21:14;;;;;;;66.07;40.25;;;153.60;2252.80;;;;;;4754604;30;20055;-56
2021/12/11 00:23:49;;;;;;;64.72;38.58;;;153.60;2252.80;;;;;;4754786;30;20035;-56
2021/12/11 00:26:24;;;;;;;62.60;37.95;;;153.60;2252.80;;;;;;4754502;30;20035;-57
2021/12/11 00:28:51;;;;;;;68.57;38.65;;;153.60;2252.80;;;;;;4754313;30;20056;-56
2021/12/11 00:31:17;;;;;;;66.68;39.55;;;153.60;2252.80;;;;;;4754668;30;20112;-56
2021/12/11 00:33:44;;;;;;;77.88;42.08;;;153.60;2252.80;;;;;;4754418;30;20032;-57
2021/12/11 00:36:18;;;;;;;78.40;42.70;;;153.60;2252.80;;;;;;4754267;30;20363;-59
2021/12/11 00:38:48;;;;;;;76.20;41.70;;;153.60;2252.80;;;;;;4754550;30;20391;-56
2021/12/11 00:41:15;;;;;;;71.38;39.45;;;153.60;2252.80;;;;;;4754250;30;20031;-56
2021/12/11 00:43:42;;;;;;;79.72;43.15;;;128.90;2252.80;;;;;;4754581;30;20089;-57
2021/12/11 00:46:12;;;;;;;81.18;42.45;;;153.60;2252.80;;;;;;4754150;30;20040;-57
2021/12/11 00:48:39;;;;;;;79.88;41.58;;;128.90;2252.80;;;;;;4754161;30;20032;-56
2021/12/11 00:51:12;;;;;;;83.05;42.28;;;128.90;2252.80;;;;;;4754056;30;20115;-56
2021/12/11 00:53:41;;;;;;;;;;;128.80;2252.80;;;;;;4754544;30;20486;-59
2021/12/11 00:56:14;;;;;;;86.82;41.17;;;128.80;2252.80;;;;;;4754517;30;19917;-56
2021/12/11 00:58:41;;;;;;;80.57;40.70;;;128.70;2252.80;;;;;;4753971;30;20040;-59
2021/12/11 01:01:07;;;;;;;84.38;40.47;;;128.70;2252.80;;;;;;4753964;30;20048;-57
2021/12/11 01:03:56;;;;;;;80.47;41.13;;;128.60;2252.80;;;;;;4754234;30;20043;-57
2021/12/11 01:06:28;;;;;;;87.20;42.33;;;128.70;2252.80;;;;;;4738008;30;20059;-57
2021/12/11 01:09:08;;;;;;;72.20;35.90;;;128.70;2252.80;;;;;;4753876;30;20078;-56
2021/12/11 01:11:49;;;;;;;77.23;39.03;;;128.70;2252.80;;;;;;4753203;30;20040;-56
2021/12/11 01:14:32;;;;;;;72.85;37.72;;;128.70;2252.80;;;;;;4753963;30;20479;-59
2021/12/11 01:17:13;;;;;;;65.43;33.90;;;128.60;2252.80;;;;;;4753669;30;20044;-59
2021/12/11 01:19:44;;;;;;;76.00;37.63;;;128.60;2252.80;;;;;;4753754;30;20094;-59
2021/12/11 01:22:43;;;;;;;73.85;36.83;;;128.60;2252.80;;;;;;4753803;30;20054;-59
2021/12/11 01:25:17;;;;;;;71.65;36.33;;;128.60;2252.80;;;;;;4753177;30;20119;-59
2021/12/11 01:27:46;;;;;;;71.80;37.00;;;128.70;2252.80;;;;;;4753390;30;20032;-59
2021/12/11 01:30:17;;;;;;;75.80;36.83;;;128.70;2252.80;;;;;;4753525;30;20056;-57
2021/12/11 01:32:43;;;;;;;82.35;38.90;;;128.80;2252.80;;;;;;4753521;30;20031;-56
2021/12/11 01:35:14;;;;;;;80.68;38.90;;;128.70;2252.80;;;;;;4753228;30;20492;-57
2021/12/11 01:37:40;;;;;;;85.00;39.08;;;128.70;2252.80;;;;;;4753560;30;20051;-59
2021/12/11 01:40:09;;;;;;;78.85;38.70;;;128.80;2252.80;;;;;;4753332;30;20059;-59
2021/12/11 01:42:36;;;;;;;72.63;36.38;;;128.70;2252.80;;;;;;4753253;30;20043;-56
2021/12/11 01:45:07;;;;;;;76.35;35.67;;;128.60;2252.80;;;;;;4753246;30;20036;-56
2021/12/11 01:47:35;;;;;;;82.90;37.58;;;128.60;2252.80;;;;;;4753455;30;20115;-57
2021/12/11 01:50:38;;;;;;;80.03;36.53;;;128.50;2252.80;;;;;;4753089;30;20036;-56
2021/12/11 01:53:33;;;;;;;82.57;38.67;;;128.50;2252.80;;;;;;4753163;30;20474;-56
2021/12/11 01:56:21;;;;;;;81.13;38.53;;;128.60;2252.80;;;;;;4753059;30;20036;-59
2021/12/11 01:59:10;;;;;;;78.18;36.38;;;128.60;2252.80;;;;;;4753361;30;20121;-56
2021/12/11 02:01:57;;;;;;;78.82;37.70;;;128.60;2252.80;;;;;;4749498;30;20047;-59
2021/12/11 02:04:26;;;;;;;79.67;36.83;;;128.60;2252.80;;;;;;4753058;30;20074;-59
2021/12/11 02:06:54;;;;;;;75.07;35.70;;;128.50;2252.80;;;;;;4752948;30;20043;-57
2021/12/11 02:09:28;;;;;;;81.13;37.30;;;128.60;2252.80;;;;;;4752903;30;20115;-56
2021/12/11 02:12:30;;;;;;;76.87;36.83;;;128.50;2252.80;;;;;;4753147;30;20448;-56
2021/12/11 02:14:58;;;;;;;73.10;34.92;;;128.50;2252.80;;;;;;4749481;30;20032;-59
2021/12/11 02:17:38;;;;;;;85.50;38.37;;;128.60;2252.80;;;;;;4752747;30;20044;-59
2021/12/11 02:20:20;;;;;;;89.65;40.25;;;128.60;2252.80;;;;;;4753079;30;20028;-59
2021/12/11 02:22:48;;;;;;;78.30;35.92;;;128.60;2252.80;;;;;;4752875;30;20032;-59
2021/12/11 02:25:23;;;;;;;84.87;37.73;;;128.60;2252.80;;;;;;4752831;30;20032;-56
2021/12/11 02:27:55;;;;;;;84.60;36.80;;;128.60;2252.80;;;;;;4752578;30;20037;-59
2021/12/11 02:30:34;;;;;;;90.37;40.10;;;128.50;2252.80;;;;;;4752774;30;20550;-59
2021/12/11 02:33:33;;;;;;;98.10;40.88;;;128.50;2252.80;;;;;;4752980;30;20044;-57
2021/12/11 02:36:09;;;;;;;94.63;38.70;;;128.50;2252.80;;;;;;4748527;30;20051;-56
2021/12/11 02:39:00;;;;;;;100.60;40.40;;;128.50;2252.80;;;;;;4752959;30;20028;-56
2021/12/11 02:41:35;;;;;;;93.87;39.60;;;128.50;2252.80;;;;;;4752604;30;20038;-56
2021/12/11 02:44:27;;;;;;;86.67;39.40;;;128.50;2252.80;;;;;;4752618;30;20040;-56
2021/12/11 02:47:06;;;;;;;88.33;39.50;;;128.50;2252.80;;;;;;4752895;30;20032;-56
2021/12/11 02:50:07;;;;;;;101.72;42.63;;;128.50;2252.80;;;;;;4752848;30;20136;-58
2021/12/11 02:52:45;;;;;;;92.20;40.83;;;128.50;2252.80;;;;;;4752651;30;20032;-56
2021/12/11 02:55:19;;;;;;;96.73;41.33;;;128.50;2252.80;;;;;;4752692;30;20501;-59
2021/12/11 02:57:49;;;;;;;99.07;40.07;;;128.50;2252.80;;;;;;4752401;30;20102;-56
2021/12/11 03:00:29;;;;;;;95.67;40.70;;;128.40;2252.80;;;;;;4752480;30;20028;-59
2021/12/11 03:03:04;;;;;;;96.50;41.97;;;128.50;2252.80;;;;;;4752529;30;20059;-59
2021/12/11 03:05:40;;;;;;;97.10;41.10;;;128.50;2252.80;;;;;;4752955;30;20367;-59
2021/12/11 03:08:10;;;;;;;90.63;40.93;;;128.50;2252.80;;;;;;4752707;30;20028;-59
2021/12/11 03:10:38;;;;;;;91.20;40.33;;;128.40;2252.80;;;;;;4752384;30;20052;-60
2021/12/11 03:13:05;;;;;;;84.37;37.43;;;128.30;2252.80;;;;;;4752381;30;20021;-59
2021/12/11 03:15:32;;;;;;;82.43;37.43;;;128.40;2252.80;;;;;;4752324;30;20032;-56
2021/12/11 03:18:00;;;;;;;76.90;37.93;;;128.20;2252.80;;;;;;4752296;30;20046;-57
2021/12/11 03:20:26;;;;;;;77.27;36.10;;;128.30;2252.80;;;;;;4752484;30;20037;-57
2021/12/11 03:22:52;;;;;;;72.93;33.10;;;128.30;2252.80;;;;;;4752290;30;20043;-56
2021/12/11 03:25:25;;;;;;;74.77;34.73;;;128.30;2252.80;;;;;;4752343;30;20032;-59
2021/12/11 03:27:51;;;;;;;73.83;33.97;;;128.30;2252.80;;;;;;4752390;30;20048;-56
2021/12/11 03:30:22;;;;;;;80.73;35.20;;;128.30;2252.80;;;;;;4752235;30;20090;-59
2021/12/11 03:32:54;;;;;;;76.53;35.97;;;128.30;2252.80;;;;;;4752175;30;20594;-59
2021/12/11 03:35:20;;;;;;;83.53;34.90;;;128.40;2252.80;;;;;;4753870;30;20424;-59
2021/12/11 03:37:50;;;;;;;75.47;33.03;;;128.40;2252.80;;;;;;4755311;30;20036;-59
2021/12/11 03:40:17;;;;;;;67.37;31.23;;;128.30;2252.80;;;;;;4755363;30;20033;-57
2021/12/11 03:42:45;;;;;;;72.90;33.50;;;128.20;2252.80;;;;;;4755337;30;20028;-59
2021/12/11 03:45:19;;;;;;;70.00;31.87;;;128.20;2252.80;;;;;;4755491;30;20066;-57
2021/12/11 03:47:51;;;;;;;;;;;128.20;2252.80;;;;;;4755612;30;20055;-59
2021/12/11 03:50:19;;;;;;;80.63;33.37;;;128.20;2252.80;;;;;;4755506;30;19910;-57
2021/12/11 03:52:48;;;;;;;74.70;33.57;;;128.20;2252.80;;;;;;4755688;30;20035;-58
2021/12/11 03:55:23;;;;;;;66.67;30.97;;;128.20;2252.80;;;;;;4755096;30;20032;-59
2021/12/11 03:57:56;;;;;;;65.37;31.07;;;128.20;2252.80;;;;;;4755246;30;20045;-59
2021/12/11 04:00:25;;;;;;;64.15;32.47;;;128.10;2252.80;;;;;;4755092;30;20034;-58
2021/12/11 04:02:53;;;;;;;66.27;30.73;;;128.10;2252.80;;;;;;4755182;30;20367;-59
2021/12/11 04:05:21;;;;;;;72.07;32.37;;;128.00;2252.80;;;;;;4754924;30;20028;-56
2021/12/11 04:07:50;;;;;;;80.47;32.87;;;128.00;2252.80;;;;;;4754904;30;20034;-59
2021/12/11 04:10:18;;;;;;;74.93;32.23;;;103.30;2227.20;;;;;;4755049;30;20028;-59
2021/12/11 04:12:48;;;;;;;82.50;37.07;;;128.00;2252.80;;;;;;4754830;30;20040;-59
2021/12/11 04:15:15;;;;;;;71.70;31.93;;;128.00;2252.80;;;;;;4754779;30;20032;-59
2021/12/11 04:17:42;;;;;;;67.03;30.80;;;128.00;2252.80;;;;;;4754643;30;20040;-59
2021/12/11 04:20:13;;;;;;;66.90;29.67;;;103.30;2227.20;;;;;;4754672;30;20029;-59
2021/12/11 04:22:41;;;;;;;77.77;29.20;;;103.30;2227.20;;;;;;4754944;30;20032;-59
2021/12/11 04:25:11;;;;;;;76.77;31.80;;;103.30;2227.20;;;;;;4754588;30;20110;-59
2021/12/11 04:27:37;;;;;;;73.23;32.20;;;103.30;2227.20;;;;;;4754434;30;20368;-56
2021/12/11 04:30:08;;;;;;;73.73;30.77;;;103.30;2227.20;;;;;;4754800;30;20036;-59
2021/12/11 04:32:35;;;;;;;67.97;29.20;;;103.30;2227.20;;;;;;4754753;30;20043;-58
2021/12/11 04:35:03;;;;;;;69.40;29.37;;;103.30;2227.20;;;;;;4754493;30;20518;-57
2021/12/11 04:37:30;;;;;;;77.80;35.07;;;103.30;2227.20;;;;;;4754360;30;20032;-59
2021/12/11 04:40:03;;;;;;;85.93;40.47;;;103.30;2227.20;;;;;;4754345;30;20360;-56
2021/12/11 04:42:47;;;;;;;67.17;29.53;;;128.00;2252.80;;;;;;4754850;30;20039;-56
2021/12/11 04:45:30;;;;;;;68.60;29.33;;;128.00;2252.80;;;;;;4754256;30;20025;-56
2021/12/11 04:48:04;;;;;;;72.40;30.10;;;128.00;2252.80;;;;;;4753387;30;20035;-58
2021/12/11 04:50:59;;;;;;;73.73;32.50;;;128.00;2252.80;;;;;;4754178;30;20028;-56
2021/12/11 04:53:53;;;;;;;82.37;34.07;;;128.00;2252.80;;;;;;4753626;30;20093;-56
2021/12/11 05:07:44;;;;;;;77.37;33.13;;;128.00;2252.80;;;;;;4720508;30;20043;-56
2021/12/11 05:10:26;;;;;;;82.50;34.60;;;128.10;2252.80;;;;;;4752696;30;20036;-59
2021/12/11 05:12:55;;;;;;;113.17;44.90;;;128.00;2252.80;;;;;;4753809;30;20123;-56
2021/12/11 05:15:24;;;;;;;120.77;44.80;;;128.00;2252.80;;;;;;4753759;30;20032;-57
2021/12/11 05:17:51;;;;;;;111.93;43.37;;;128.10;2252.80;;;;;;4754398;30;20044;-56
2021/12/11 05:20:19;;;;;;;102.63;39.60;;;128.10;2252.80;;;;;;4753644;30;20056;-59
2021/12/11 05:22:46;;;;;;;94.43;39.07;;;128.20;2252.80;;;;;;4753708;30;20086;-59
2021/12/11 05:25:13;;;;;;;84.90;35.63;;;128.20;2252.80;;;;;;4753595;30;20035;-57
2021/12/11 05:27:43;;;;;;;73.47;32.00;;;128.20;2252.80;;;;;;4753591;30;20440;-59
2021/12/11 05:30:23;;;;;;;74.20;34.17;;;128.20;2252.80;;;;;;4753746;30;20032;-59
2021/12/11 05:32:51;;;;;;;77.37;38.30;;;128.30;2252.80;;;;;;4753792;30;20032;-59
2021/12/11 05:35:18;;;;;;;76.83;37.03;;;128.30;2252.80;;;;;;4753443;30;20051;-59
2021/12/11 05:37:44;;;;;;;82.57;41.67;;;128.30;2252.80;;;;;;4753303;30;20036;-59
2021/12/11 05:40:12;;;;;;;89.50;46.20;;;128.30;2252.80;;;;;;4753346;30;20024;-59
2021/12/11 05:42:38;;;;;;;86.67;45.03;;;128.30;2252.80;;;;;;4753343;30;20024;-60
2021/12/11 05:45:05;;;;;;;79.07;44.10;;;128.40;2252.80;;;;;;4753184;30;20032;-59
2021/12/11 05:47:32;;;;;;;80.50;38.97;;;128.40;2252.80;;;;;;4753250;30;20047;-58
2021/12/11 05:49:58;;;;;;;102.30;47.40;;;128.30;2252.80;;;;;;4753196;30;20024;-59
2021/12/11 05:52:24;;;;;;;90.23;39.27;;;128.40;2252.80;;;;;;4753132;30;20032;-59
2021/12/11 05:54:51;;;;;;;85.97;34.70;;;128.30;2252.80;;;;;;4753348;30;20024;-59
2021/12/11 05:57:20;;;;;;;76.23;31.73;;;128.30;2252.80;;;;;;4752790;30;20040;-59
2021/12/11 05:59:47;;;;;;;85.50;34.90;;;128.20;2252.80;;;;;;4753077;30;20031;-59
2021/12/11 06:02:18;;;;;;;71.27;30.73;;;128.20;2252.80;;;;;;4753041;30;20067;-57
2021/12/11 06:04:47;;;;;;;68.17;34.00;;;128.10;2252.80;;;;;;4752936;30;20123;-59
2021/12/11 06:07:15;;;;;;;61.57;30.23;;;128.20;2252.80;;;;;;4752983;30;20036;-59
2021/12/11 06:09:45;;;;;;;94.70;48.43;;;128.20;2252.80;;;;;;4752946;30;20032;-59
2021/12/11 06:12:13;;;;;;;71.50;37.13;;;128.20;2252.80;;;;;;4753167;30;20450;-57
2021/12/11 06:14:41;;;;;;;55.07;28.87;;;128.20;2252.80;;;;;;4753104;30;20054;-57
2021/12/11 06:17:09;;;;;;;51.50;25.73;;;128.20;2252.80;;;;;;4753528;30;20058;-59
2021/12/11 06:19:36;;;;;;;50.97;27.10;;;128.20;2252.80;;;;;;4752845;30;20032;-59
2021/12/11 06:22:03;;;;;;;74.87;37.37;;;128.30;2252.80;;;;;;4752796;30;20114;-57
2021/12/11 06:24:29;;;;;;;82.20;40.97;;;128.20;2252.80;;;;;;4752774;30;20040;-59
2021/12/11 06:26:57;;;;;;;80.47;40.60;;;128.30;2252.80;;;;;;4752958;30;20402;-59
2021/12/11 06:29:24;;;;;;;90.47;45.13;;;128.30;2252.80;;;;;;4752747;30;20071;-59
2021/12/11 06:31:51;;;;;;;96.80;47.50;;;128.40;2252.80;;;;;;4753002;30;20115;-59
2021/12/11 06:34:17;;;;;;;107.10;50.70;;;128.40;2252.80;;;;;;4752711;30;20043;-59
2021/12/11 06:36:45;;;;;;;76.70;40.17;;;128.50;2252.80;;;;;;4752587;30;20040;-57
2021/12/11 06:39:16;;;;;;;109.13;50.17;;;128.50;2252.80;;;;;;4752653;30;20040;-59
2021/12/11 06:41:47;;;;;;;104.33;51.47;;;128.50;2252.80;;;;;;4752945;30;20039;-57
2021/12/11 06:44:13;;;;;;;78.53;42.17;;;128.50;2252.80;;;;;;4752891;30;20044;-59
2021/12/11 06:46:41;;;;;;;67.60;34.77;;;128.60;2252.80;;;;;;4752720;30;20039;-59
2021/12/11 06:49:08;;;;;;;64.23;32.43;;;128.60;2252.80;;;;;;4752892;30;20044;-59
2021/12/11 06:51:34;;;;;;;60.87;31.27;;;128.60;2252.80;;;;;;4752556;30;20063;-59
2021/12/11 06:54:08;;;;;;;60.70;30.00;;;128.60;2252.80;;;;;;4752527;30;20379;-59
2021/12/11 06:56:36;;;;;;;69.88;31.45;;;128.60;2252.80;;;;;;4752769;30;20047;-59
2021/12/11 06:59:03;;;;;;;65.70;32.57;;;128.70;2252.80;;;;;;4752511;30;20075;-59
2021/12/11 07:01:29;;;;;;;60.57;28.90;;;128.60;2252.80;;;;;;4752446;30;20043;-59
2021/12/11 07:03:57;;;;;;;54.33;28.83;;;128.60;2252.80;;;;;;4752506;30;20110;-57
2021/12/11 07:06:23;;;;;;;53.80;28.80;;;128.60;2252.80;;;;;;4752442;30;20032;-58
2021/12/11 07:08:50;;;;;;;55.90;30.90;;;128.60;2252.80;;;;;;4752468;30;20098;-60
2021/12/11 07:11:17;;;;;;;56.03;30.10;;;128.70;2252.80;;;;;;4755525;30;20133;-59
2021/12/11 07:13:44;;;;;;;63.60;35.67;;;128.60;2252.80;;;;;;4755795;30;20032;-56
2021/12/11 07:16:11;;;;;;;63.55;34.00;;;128.70;2252.80;;;;;;4755753;30;20031;-59
2021/12/11 07:18:37;;;;;;;57.50;31.35;;;128.80;2252.80;;;;;;4755978;30;20040;-59
2021/12/11 07:21:05;;;;;;;67.70;35.63;;;128.80;2252.80;;;;;;4755786;30;20127;-57
2021/12/11 07:23:32;;;;;;;70.82;37.58;;;128.80;2252.80;;;;;;4755637;30;20516;-59
2021/12/11 07:26:15;;;;;;;65.72;33.63;;;128.80;2252.80;;;;;;4754380;30;20044;-59
2021/12/11 07:28:43;;;;;;;79.37;40.30;;;128.90;2252.80;;;;;;4755591;30;20059;-58
2021/12/11 07:31:08;;;;;;;74.88;37.03;;;128.90;2252.80;;;;;;4755488;30;20036;-56
2021/12/11 07:33:34;;;;;;;77.37;37.40;;;128.90;2252.80;;;;;;4755336;30;20039;-59
2021/12/11 07:36:01;;;;;;;71.47;34.30;;;128.90;2252.80;;;;;;4755453;30;20089;-58
2021/12/11 07:38:27;;;;;;;66.70;34.35;;;153.60;2252.80;;;;;;4755353;30;20072;-56
2021/12/11 07:40:58;;;;;;;75.70;35.53;;;153.60;2252.80;;;;;;4755685;30;20033;-58
2021/12/11 07:43:26;;;;;;;69.13;35.85;;;153.60;2252.80;;;;;;4755339;30;20032;-58
2021/12/11 07:45:55;;;;;;;73.00;36.73;;;153.60;2252.80;;;;;;4755520;30;20055;-57
2021/12/11 07:48:21;;;;;;;77.97;35.97;;;153.60;2252.80;;;;;;4739265;30;20368;-59
2021/12/11 07:50:48;;;;;;;74.63;38.15;;;153.60;2252.80;;;;;;4755255;30;20030;-59
2021/12/11 07:53:15;;;;;;;72.90;37.45;;;153.60;2252.80;;;;;;4755432;30;20032;-58
2021/12/11 07:55:42;;;;;;;81.72;39.78;;;153.70;2252.80;;;;;;4755367;30;20498;-57
2021/12/11 07:58:09;;;;;;;88.47;41.85;;;153.70;2252.80;;;;;;4755298;30;20106;-59
2021/12/11 08:00:38;;;;;;;80.95;40.85;;;153.70;2252.80;;;;;;4755129;30;20419;-59
2021/12/11 08:03:06;;;;;;;81.17;41.27;;;153.70;2252.80;;;;;;4766212;30;20032;-57
2021/12/11 08:05:33;;;;;;;81.67;41.67;;;153.80;2252.80;;;;;;4772870;30;20027;-57
2021/12/11 08:08:01;;;;;;;95.63;45.27;;;153.80;2252.80;;;;;;4772699;30;20036;-59
2021/12/11 08:10:30;;;;;;;137.18;71.50;;;153.80;2252.80;;;;;;4772835;30;20035;-56
2021/12/11 08:12:57;;;;;;;197.83;98.87;;;153.80;2252.80;;;;;;4772591;30;20110;-57
2021/12/11 08:15:24;;;;;;;85.57;47.53;;;153.80;2252.80;;;;;;4772400;30;20490;-58
2021/12/11 08:17:54;;;;;;;105.05;53.42;;;153.80;2252.80;;;;;;4756418;30;20450;-59
2021/12/11 08:20:27;;;;;;;505.65;298.70;;;153.90;2252.80;;;;;;4772600;30;20059;-59
2021/12/11 08:22:54;;;;;;;595.30;329.15;;;153.90;2252.80;;;;;;4769507;30;20024;-57
2021/12/11 08:25:22;;;;;;;603.72;333.60;;;153.90;2252.80;;;;;;4754517;30;20040;-57
2021/12/11 08:27:49;;;;;;;296.58;138.30;;;153.90;2252.80;;;;;;4754517;30;20040;-58
2021/12/11 08:30:17;;;;;;;381.38;168.20;;;153.90;2252.80;;;;;;4762043;30;20117;-60
2021/12/11 08:32:44;;;;;;;253.32;113.65;;;153.90;2252.80;;;;;;4772077;30;20042;-59
2021/12/11 08:35:12;;;;;;;675.70;341.17;;;153.90;2252.80;;;;;;4768112;30;20051;-58
2021/12/11 08:37:41;;;;;;;381.75;155.48;;;153.90;2252.80;;;;;;4771205;30;20052;-59
2021/12/11 08:40:13;;;;;;;429.58;175.88;;;154.00;2252.80;;;;;;4772017;30;20534;-59
2021/12/11 08:42:40;;;;;;;447.52;179.73;;;154.00;2252.80;;;;;;4772060;30;20077;-59
2021/12/11 08:45:11;;;;;;;557.47;254.30;;;153.90;2252.80;;;;;;4772249;30;20460;-60
2021/12/11 08:47:40;;;;;;;320.63;128.13;;;154.00;2252.80;;;;;;4769163;30;20115;-59
2021/12/11 08:50:13;;;;;;;220.43;99.95;;;154.10;2252.80;;;;;;4762653;30;20031;-59
2021/12/11 08:52:41;;;;;;;198.60;112.25;;;154.00;2252.80;;;;;;4762408;30;20028;-59
2021/12/11 08:55:17;;;;;;;188.82;96.28;;;154.10;2252.80;;;;;;4760846;30;20028;-59
2021/12/11 08:57:43;;;;;;;160.65;75.32;;;154.10;2252.80;;;;;;4762402;30;20044;-59
2021/12/11 09:00:19;;;;;;;157.23;77.43;;;154.10;2252.80;;;;;;4769751;30;20032;-59
2021/12/11 09:02:52;;;;;;;562.22;324.40;;;154.10;2252.80;;;;;;4769653;30;20028;-59
2021/12/11 09:05:38;;;;;;;270.13;127.68;;;154.20;2252.80;;;;;;4763364;30;20474;-59
2021/12/11 09:08:10;;;;;;;229.70;115.10;;;154.20;2252.80;;;;;;4760492;30;20088;-59
2021/12/11 09:10:50;;;;;;;232.90;134.75;;;154.20;2252.80;;;;;;4761251;30;20028;-59
2021/12/11 09:13:43;;;;;;;175.10;104.40;;;154.30;2252.80;;;;;;4761270;30;20028;-59
2021/12/11 09:16:15;;;;;;;108.93;56.35;;;154.20;2252.80;;;;;;4760780;30;20040;-59
2021/12/11 09:19:01;;;;;;;108.55;56.90;;;154.20;2252.80;;;;;;4763477;30;20376;-59
2021/12/11 09:21:38;;;;;;;122.80;63.15;;;154.20;2252.80;;;;;;4762124;30;20045;-60
2021/12/11 09:24:25;;;;;;;142.23;76.13;;;154.20;2252.80;;;;;;4761507;30;20035;-60
2021/12/11 09:27:19;;;;;;;123.22;62.75;;;154.20;2252.80;;;;;;4762298;30;20040;-59
2021/12/11 09:29:54;;;;;;;163.32;88.13;;;154.30;2252.80;;;;;;4760019;30;20127;-58
2021/12/11 09:32:43;;;;;;;143.82;76.47;;;154.20;2252.80;;;;;;4760068;30;20436;-59
2021/12/11 09:35:28;;;;;;;132.40;68.73;;;154.30;2252.80;;;;;;4763263;30;20019;-59
2021/12/11 09:38:05;;;;;;;147.90;80.43;;;154.40;2252.80;;;;;;4761896;30;20040;-59
2021/12/11 09:40:37;;;;;;;118.60;64.77;;;154.40;2252.80;;;;;;4760127;30;20441;-57
2021/12/11 09:43:03;;;;;;;119.18;63.53;;;154.40;2252.80;;;;;;4760351;30;20054;-58
2021/12/11 09:45:36;;;;;;;154.48;82.00;;;154.40;2252.80;;;;;;4761650;30;20474;-57
2021/12/11 09:48:11;;;;;;;126.43;62.72;;;154.30;2252.80;;;;;;4761262;30;20040;-59
2021/12/11 09:50:47;;;;;;;159.35;80.95;;;154.40;2252.80;;;;;;4760552;30;20039;-57
2021/12/11 09:53:16;;;;;;;112.80;57.85;;;154.40;2252.80;;;;;;4760183;30;20490;-58
2021/12/11 09:55:43;;;;;;;124.20;63.50;;;154.40;2252.80;;;;;;4760513;30;20039;-58
2021/12/11 09:58:13;;;;;;;99.30;50.23;;;154.40;2252.80;;;;;;4761476;30;20490;-57
2021/12/11 10:00:47;;;;;;;149.00;83.55;;;154.40;2252.80;;;;;;4760947;30;20025;-58
2021/12/11 10:03:18;;;;;;;157.03;88.13;;;154.50;2252.80;;;;;;4760029;30;20032;-58
2021/12/11 10:05:55;;;;;;;203.05;103.18;;;154.50;2252.80;;;;;;4759896;30;20027;-59
2021/12/11 10:08:41;;;;;;;139.43;75.07;;;154.50;2252.80;;;;;;4760294;30;20386;-59
2021/12/11 10:11:21;;;;;;;154.75;77.70;;;179.20;2252.80;;;;;;4761400;30;20508;-59
2021/12/11 10:13:53;;;;;;;137.48;74.60;;;179.30;2252.80;;;;;;4760404;30;20390;-59
2021/12/11 10:16:22;;;;;;;108.63;62.53;;;179.30;2252.80;;;;;;4760477;30;20032;-59
2021/12/11 10:18:49;;;;;;;107.93;57.58;;;179.30;2252.80;;;;;;4768263;30;20092;-59
2021/12/11 10:21:17;;;;;;;94.00;54.30;;;179.30;2252.80;;;;;;4768481;30;20070;-59
2021/12/11 10:23:47;;;;;;;96.78;56.28;;;179.30;2252.80;;;;;;4768446;30;20040;-60
2021/12/11 10:26:16;;;;;;;89.72;55.58;;;179.30;2252.80;;;;;;4766636;30;20042;-59
2021/12/11 10:28:48;;;;;;;81.93;47.50;;;179.30;2252.80;;;;;;4768327;30;20078;-59
2021/12/11 10:31:50;;;;;;;90.70;60.90;;;179.30;2252.80;;;;;;4768490;30;20569;-59
2021/12/11 10:34:21;;;;;;;77.68;47.80;;;179.40;2252.80;;;;;;4764595;30;20044;-61
2021/12/11 10:36:54;;;;;;;73.05;40.50;;;179.30;2252.80;;;;;;4764365;30;20062;-61
2021/12/11 10:39:20;;;;;;;65.80;39.47;;;179.40;2252.80;;;;;;4752741;30;20116;-60
2021/12/11 10:41:47;;;;;;;69.97;39.50;;;179.30;2252.80;;;;;;4755015;30;20390;-63
2021/12/11 10:44:20;;;;;;;68.13;36.17;;;179.40;2252.80;;;;;;4756606;30;20037;-61
2021/12/11 10:47:06;;;;;;;66.43;35.28;;;179.40;2252.80;;;;;;4754942;30;20041;-61
2021/12/11 10:49:33;;;;;;;79.97;42.22;;;179.40;2252.80;;;;;;4755413;30;20032;-61
2021/12/11 10:52:13;;;;;;;69.25;36.25;;;179.50;2252.80;;;;;;4759891;30;20393;-61
2021/12/11 10:54:39;;;;;;;69.80;38.03;;;179.50;2252.80;;;;;;4772396;30;20028;-61
2021/12/11 10:57:06;;;;;;;75.55;41.65;;;179.50;2252.80;;;;;;4773069;30;20040;-61
2021/12/11 10:59:35;;;;;;;99.68;54.33;;;179.50;2252.80;;;;;;4773712;30;20051;-62
2021/12/11 11:02:11;;;;;;;112.80;56.90;;;179.60;2252.80;;;;;;4764169;30;20522;-61
2021/12/11 11:04:45;;;;;;;92.43;47.35;;;179.60;2252.80;;;;;;4763467;30;20028;-61
2021/12/11 11:07:12;;;;;;;128.70;64.88;;;179.60;2252.80;;;;;;4763723;30;20035;-61
2021/12/11 11:09:39;;;;;;;171.57;85.95;;;179.70;2252.80;;;;;;4765212;30;20426;-61
2021/12/11 11:12:13;;;;;;;220.65;110.78;;;179.70;2252.80;;;;;;4764001;30;20523;-60
2021/12/11 11:14:41;;;;;;;203.55;97.78;;;179.60;2252.80;;;;;;4763497;30;20486;-61
2021/12/11 11:17:12;;;;;;;168.85;85.10;;;179.60;2252.80;;;;;;4764043;30;20035;-61
2021/12/11 11:19:40;;;;;;;113.75;58.13;;;179.60;2252.80;;;;;;4764918;30;20020;-61
2021/12/11 11:22:14;;;;;;;112.45;59.20;;;179.60;2252.80;;;;;;4764067;30;20103;-61
2021/12/11 11:24:51;;;;;;;112.57;57.65;;;179.60;2252.80;;;;;;4763405;30;20498;-61
2021/12/11 11:27:18;;;;;;;166.15;83.47;;;179.60;2252.80;;;;;;4763123;30;20028;-61
2021/12/11 11:29:47;;;;;;;107.50;57.42;;;179.70;2252.80;;;;;;4764157;30;20059;-61
2021/12/11 11:32:19;;;;;;;126.57;62.85;;;179.70;2252.80;;;;;;4759991;30;20072;-61
2021/12/11 11:34:45;;;;;;;130.80;70.45;;;179.70;2252.80;;;;;;4764823;30;20023;-61
2021/12/11 11:37:17;;;;;;;102.80;54.03;;;179.70;2252.80;;;;;;4763276;30;20039;-61
2021/12/11 11:39:43;;;;;;;205.23;92.53;;;179.70;2252.80;;;;;;4762888;30;20032;-61
2021/12/11 11:42:15;;;;;;;112.28;50.65;;;179.60;2252.80;;;;;;4764420;30;20032;-61
2021/12/11 11:44:43;;;;;;;106.03;47.58;;;179.60;2252.80;;;;;;4764539;30;20036;-61
2021/12/11 11:47:12;;;;;;;103.68;42.88;;;179.60;2252.80;;;;;;4768064;30;20036;-61
2021/12/11 11:49:40;;;;;;;103.10;44.83;;;179.50;2252.80;;;;;;4772883;30;20081;-61
2021/12/11 11:52:10;;;;;;;111.15;46.28;;;179.60;2252.80;;;;;;4771673;30;20031;-61
2021/12/11 11:54:40;;;;;;;112.45;47.83;;;179.60;2252.80;;;;;;4757856;30;20114;-61
2021/12/11 11:57:19;;;;;;;109.18;49.40;;;179.60;2252.80;;;;;;4762318;30;20047;-62
2021/12/11 11:59:46;;;;;;;119.30;50.38;;;179.60;2252.80;;;;;;4764388;30;20032;-61
2021/12/11 12:02:18;;;;;;;105.80;47.05;;;179.70;2252.80;;;;;;4763343;30;20390;-61
2021/12/11 12:04:46;;;;;;;124.50;56.50;;;179.60;2252.80;;;;;;4762395;30;20099;-61
2021/12/11 12:07:13;;;;;;;101.38;46.30;;;179.60;2252.80;;;;;;4763689;30;20525;-62
2021/12/11 12:09:43;;;;;;;96.70;41.97;;;179.70;2252.80;;;;;;4763772;30;20033;-61
2021/12/11 12:12:12;;;;;;;142.43;64.90;;;179.60;2252.80;;;;;;4762935;30;20024;-61
2021/12/11 12:14:40;;;;;;;124.25;56.92;;;179.60;2252.80;;;;;;4762732;30;20036;-61
2021/12/11 12:17:08;;;;;;;101.85;43.58;;;179.60;2252.80;;;;;;4764192;30;20040;-61
2021/12/11 12:19:34;;;;;;;100.53;42.95;;;179.60;2252.80;;;;;;4754832;30;20020;-61
2021/12/11 12:22:04;;;;;;;99.55;41.95;;;179.60;2252.80;;;;;;4756424;30;20390;-61
2021/12/11 12:24:32;;;;;;;108.53;46.85;;;179.60;2252.80;;;;;;4772364;30;20129;-61
2021/12/11 12:27:03;;;;;;;108.15;48.80;;;179.50;2252.80;;;;;;4772414;30;20023;-61
2021/12/11 12:29:30;;;;;;;119.28;53.72;;;179.50;2252.80;;;;;;4769364;30;20052;-60